createdAt,value
2022-10-14T00:01:45.309Z,100756.06
2022-10-14T00:04:11.891Z,100763.66
2022-10-14T00:06:38.495Z,100751.38
2022-10-14T00:09:09.531Z,100754.63
2022-10-14T00:11:37.809Z,100744.12
2022-10-14T00:14:09.040Z,100746.72
2022-10-14T00:16:38.116Z,100747.50
2022-10-14T00:19:05.523Z,100745.53
2022-10-14T00:21:33.196Z,100734.41
2022-10-14T00:23:59.949Z,100739.56
2022-10-14T00:26:32.066Z,100744.22
2022-10-14T00:29:00.093Z,100742.16
2022-10-14T00:31:28.054Z,100741.19
2022-10-14T00:33:55.915Z,100738.25
2022-10-14T00:36:24.442Z,100744.56
2022-10-14T00:38:52.630Z,100732.44
2022-10-14T00:41:26.258Z,100733.09
2022-10-14T00:43:58.589Z,100737.44
2022-10-14T00:46:27.320Z,100734.06
2022-10-14T00:48:54.209Z,100729.06
2022-10-14T00:51:21.710Z,100729.38
2022-10-14T00:53:48.327Z,100734.41
2022-10-14T00:56:19.783Z,100740.06
2022-10-14T00:58:46.649Z,100734.91
2022-10-14T01:01:13.870Z,100732.66
2022-10-14T01:03:41.072Z,100728.63
2022-10-14T01:06:13.852Z,100733.44
2022-10-14T01:08:45.038Z,100722.81
2022-10-14T01:11:43.156Z,100719.25
2022-10-14T01:14:12.676Z,100720.22
2022-10-14T01:16:42.079Z,100726.38
2022-10-14T01:19:24.992Z,100723.78
2022-10-14T01:22:06.469Z,100716.84
2022-10-14T01:24:44.004Z,100717.19
2022-10-14T01:27:16.442Z,100717.34
2022-10-14T01:30:04.672Z,100720.91
2022-10-14T01:32:36.113Z,100725.44
2022-10-14T01:35:10.432Z,100716.13
2022-10-14T01:37:39.785Z,100719.28
2022-10-14T01:40:17.671Z,100717.19
2022-10-14T01:42:45.547Z,100710.44
2022-10-14T01:45:19.003Z,100710.78
2022-10-14T01:47:49.938Z,100714.44
2022-10-14T01:50:20.565Z,100709.16
2022-10-14T01:52:56.250Z,100708.88
2022-10-14T01:55:27.382Z,100708.34
2022-10-14T01:57:57.088Z,100707.53
2022-10-14T02:00:23.667Z,100714.16
2022-10-14T02:02:50.255Z,100709.66
2022-10-14T02:05:35.656Z,100706.41
2022-10-14T02:08:18.145Z,100706.06
2022-10-14T02:11:01.737Z,100703.47
2022-10-14T02:14:03.080Z,100703.94
2022-10-14T02:16:41.527Z,100706.34
2022-10-14T02:19:37.681Z,100707.19
2022-10-14T02:22:16.101Z,100705.59
2022-10-14T02:24:46.783Z,100699.75
2022-10-14T02:27:20.860Z,100697.69
2022-10-14T02:29:48.570Z,100699.25
2022-10-14T02:32:18.999Z,100698.13
2022-10-14T02:34:51.021Z,100695.72
2022-10-14T02:37:20.046Z,100691.16
2022-10-14T02:39:55.840Z,100692.00
2022-10-14T02:42:22.764Z,100695.03
2022-10-14T02:44:59.217Z,100701.34
2022-10-14T02:47:26.170Z,100696.50
2022-10-14T02:49:52.928Z,100700.03
2022-10-14T02:52:19.986Z,100698.59
2022-10-14T02:54:46.788Z,100696.94
2022-10-14T02:57:13.347Z,100702.13
2022-10-14T02:59:39.907Z,100699.38
2022-10-14T03:02:07.660Z,100696.44
2022-10-14T03:04:34.953Z,100702.06
2022-10-14T03:07:01.861Z,100702.41
2022-10-14T03:09:28.443Z,100702.38
2022-10-14T03:11:54.992Z,100704.97
2022-10-14T03:14:21.504Z,100693.63
2022-10-14T03:16:48.037Z,100701.09
2022-10-14T03:19:14.723Z,100700.75
2022-10-14T03:21:41.378Z,100687.13
2022-10-14T03:24:09.787Z,100689.22
2022-10-14T03:26:36.433Z,100690.66
2022-10-14T03:29:03.109Z,100690.94
2022-10-14T03:31:29.677Z,100692.56
2022-10-14T03:33:56.219Z,100685.88
2022-10-14T03:36:22.793Z,100690.87
2022-10-14T03:38:49.324Z,100687.38
2022-10-14T03:41:15.868Z,100683.94
2022-10-14T03:43:42.419Z,100697.50
2022-10-14T03:46:08.985Z,100687.59
2022-10-14T03:48:35.550Z,100690.31
2022-10-14T03:51:02.123Z,100694.06
2022-10-14T03:53:28.750Z,100694.66
2022-10-14T03:55:55.359Z,100692.66
2022-10-14T03:58:21.921Z,100704.91
2022-10-14T04:00:48.485Z,100690.28
2022-10-14T04:03:15.125Z,100695.22
2022-10-14T04:05:41.787Z,100686.22
2022-10-14T04:08:08.857Z,100685.16
2022-10-14T04:10:35.769Z,100681.84
2022-10-14T04:13:02.329Z,100684.53
2022-10-14T04:15:28.882Z,100681.41
2022-10-14T04:17:56.450Z,100677.84
2022-10-14T04:20:23.386Z,100683.47
2022-10-14T04:22:49.936Z,100680.78
2022-10-14T04:25:16.519Z,100682.94
2022-10-14T04:27:46.214Z,100675.16
2022-10-14T04:30:13.127Z,100675.50
2022-10-14T04:32:41.906Z,100677.91
2022-10-14T04:35:09.642Z,100671.56
2022-10-14T04:37:36.206Z,100665.22
2022-10-14T04:40:03.514Z,100672.62
2022-10-14T04:42:30.039Z,100665.13
2022-10-14T04:44:56.747Z,100663.87
2022-10-14T04:47:23.315Z,100662.00
2022-10-14T04:49:50.324Z,100661.53
2022-10-14T04:52:16.895Z,100663.53
2022-10-14T04:54:43.427Z,100665.03
2022-10-14T04:57:10.169Z,100665.72
2022-10-14T04:59:36.999Z,100664.94
2022-10-14T05:02:03.710Z,100669.97
2022-10-14T05:04:30.341Z,100673.25
2022-10-14T05:06:57.000Z,100665.41
2022-10-14T05:09:24.423Z,100667.81
2022-10-14T05:11:51.167Z,100667.06
2022-10-14T05:14:17.864Z,100680.84
2022-10-14T05:16:44.408Z,100677.94
2022-10-14T05:19:10.998Z,100676.69
2022-10-14T05:21:37.698Z,100674.66
2022-10-14T05:24:04.509Z,100668.78
2022-10-14T05:26:31.658Z,100671.94
2022-10-14T05:28:58.715Z,100680.47
2022-10-14T05:31:25.380Z,100672.78
2022-10-14T05:33:51.884Z,100689.13
2022-10-14T05:36:18.492Z,100691.34
2022-10-14T05:38:45.038Z,100685.31
2022-10-14T05:41:11.593Z,100686.94
2022-10-14T05:43:38.132Z,100684.87
2022-10-14T05:46:04.772Z,100691.72
2022-10-14T05:48:32.239Z,100690.19
2022-10-14T05:51:02.476Z,100684.56
2022-10-14T05:53:29.457Z,100682.25
2022-10-14T05:56:07.199Z,100685.88
2022-10-14T05:58:34.327Z,100686.34
2022-10-14T06:01:06.363Z,100684.72
2022-10-14T06:03:33.407Z,100682.91
2022-10-14T06:06:00.566Z,100689.09
2022-10-14T06:08:28.476Z,100683.25
2022-10-14T06:10:55.272Z,100684.37
2022-10-14T06:13:22.200Z,100693.06
2022-10-14T06:15:48.808Z,100698.25
2022-10-14T06:18:15.677Z,100697.69
2022-10-14T06:20:42.196Z,100698.34
2022-10-14T06:23:08.756Z,100705.37
2022-10-14T06:25:36.459Z,100709.53
2022-10-14T06:28:06.336Z,100698.72
2022-10-14T06:30:33.252Z,100700.91
2022-10-14T06:32:59.797Z,100715.06
2022-10-14T06:35:26.634Z,100724.87
2022-10-14T06:37:53.187Z,100721.78
2022-10-14T06:40:20.155Z,100718.50
2022-10-14T06:42:46.947Z,100715.91
2022-10-14T06:45:14.369Z,100718.44
2022-10-14T06:47:41.729Z,100717.88
2022-10-14T06:50:08.775Z,100725.31
2022-10-14T06:52:35.557Z,100724.13
2022-10-14T06:55:02.129Z,100723.34
2022-10-14T06:57:28.791Z,100724.72
2022-10-14T06:59:56.141Z,100724.94
2022-10-14T07:02:22.864Z,100723.12
2022-10-14T07:04:49.778Z,100729.13
2022-10-14T07:07:16.388Z,100723.69
2022-10-14T07:09:42.927Z,100728.50
2022-10-14T07:12:09.528Z,100734.31
2022-10-14T07:14:36.117Z,100729.44
2022-10-14T07:17:02.758Z,100730.34
2022-10-14T07:19:29.568Z,100733.47
2022-10-14T07:21:56.099Z,100728.78
2022-10-14T07:24:22.718Z,100737.78
2022-10-14T07:26:49.384Z,100734.00
2022-10-14T07:29:15.975Z,100732.69
2022-10-14T07:31:42.590Z,100731.13
2022-10-14T07:34:09.622Z,100728.59
2022-10-14T07:36:36.519Z,100727.75
2022-10-14T07:39:05.816Z,100728.66
2022-10-14T07:41:33.122Z,100727.41
2022-10-14T07:44:03.191Z,100734.00
2022-10-14T07:46:32.377Z,100731.28
2022-10-14T07:49:26.604Z,100738.03
2022-10-14T07:51:53.200Z,100744.12
2022-10-14T07:54:23.915Z,100732.69
2022-10-14T07:56:51.420Z,100735.97
2022-10-14T07:59:20.290Z,100737.03
2022-10-14T08:01:48.152Z,100728.78
2022-10-14T08:04:15.265Z,100730.59
2022-10-14T08:06:41.990Z,100728.09
2022-10-14T08:09:11.819Z,100722.88
2022-10-14T08:11:38.855Z,100720.28
2022-10-14T08:14:05.629Z,100719.47
2022-10-14T08:16:34.942Z,100721.41
2022-10-14T08:19:12.610Z,100715.78
2022-10-14T08:21:41.797Z,100717.12
2022-10-14T08:24:08.831Z,100713.25
2022-10-14T08:26:48.167Z,100715.34
2022-10-14T08:29:14.741Z,100719.28
2022-10-14T08:31:41.384Z,100719.63
2022-10-14T08:34:07.983Z,100721.06
2022-10-14T08:36:34.555Z,100713.88
2022-10-14T08:39:01.169Z,100708.09
2022-10-14T08:41:39.774Z,100711.37
2022-10-14T08:44:12.538Z,100705.03
2022-10-14T08:46:48.072Z,100702.22
2022-10-14T08:49:58.583Z,100701.25
2022-10-14T08:52:34.989Z,100693.88
2022-10-14T08:55:43.678Z,100687.16
2022-10-14T08:58:28.816Z,100697.28
2022-10-14T09:00:56.459Z,100694.06
2022-10-14T09:03:32.875Z,100685.75
2022-10-14T09:06:03.425Z,100690.03
2022-10-14T09:08:43.182Z,100690.47
2022-10-14T09:11:20.250Z,100690.81
2022-10-14T09:14:01.115Z,100688.16
2022-10-14T09:16:36.260Z,100680.50
2022-10-14T09:19:26.947Z,100679.94
2022-10-14T09:21:54.916Z,100685.16
2022-10-14T09:24:25.393Z,100687.13
2022-10-14T09:29:32.499Z,100689.44
2022-10-14T09:32:31.876Z,100683.16
2022-10-14T09:34:59.459Z,100692.31
2022-10-14T09:37:36.920Z,100690.97
2022-10-14T09:40:32.336Z,100691.81
2022-10-14T09:43:11.042Z,100697.53
2022-10-14T09:46:03.311Z,100691.22
2022-10-14T09:48:38.881Z,100697.50
2022-10-14T09:51:18.057Z,100695.19
2022-10-14T09:53:49.101Z,100696.00
2022-10-14T09:56:17.986Z,100681.75
2022-10-14T09:58:55.220Z,100688.63
2022-10-14T10:01:24.226Z,100687.38
2022-10-14T10:03:53.131Z,100690.47
2022-10-14T10:06:23.624Z,100684.97
2022-10-14T10:08:53.119Z,100688.59
2022-10-14T10:11:33.521Z,100686.59
2022-10-14T10:14:17.537Z,100677.59
2022-10-14T10:16:44.762Z,100686.91
2022-10-14T10:19:27.065Z,100680.53
2022-10-14T10:21:54.549Z,100688.47
2022-10-14T10:24:26.128Z,100688.91
2022-10-14T10:26:55.335Z,100689.53
2022-10-14T10:29:31.776Z,100674.66
2022-10-14T10:32:15.482Z,100670.84
2022-10-14T10:35:08.780Z,100667.22
2022-10-14T10:37:38.609Z,100669.09
2022-10-14T10:40:17.783Z,100666.78
2022-10-14T10:43:11.968Z,100666.78
2022-10-14T10:46:01.833Z,100658.59
2022-10-14T10:48:41.784Z,100661.50
2022-10-14T10:51:26.757Z,100653.25
2022-10-14T10:54:06.978Z,100640.94
2022-10-14T10:56:48.948Z,100648.97
2022-10-14T10:59:24.021Z,100641.53
2022-10-14T11:02:03.873Z,100638.28
2022-10-14T11:04:41.024Z,100629.38
2022-10-14T11:07:40.106Z,100626.56
2022-10-14T11:10:40.434Z,100628.84
2022-10-14T11:13:09.883Z,100629.12
2022-10-14T11:15:39.488Z,100624.41
2022-10-14T11:18:19.448Z,100626.97
2022-10-14T11:21:08.015Z,100626.81
2022-10-14T11:24:04.013Z,100623.97
2022-10-14T11:27:06.377Z,100616.25
2022-10-14T11:29:35.862Z,100613.03
2022-10-14T11:32:20.852Z,100610.59
2022-10-14T11:34:56.635Z,100613.44
2022-10-14T11:37:29.138Z,100609.25
2022-10-14T11:39:58.357Z,100608.19
2022-10-14T11:42:54.088Z,100609.25
2022-10-14T11:45:36.584Z,100599.75
2022-10-14T11:48:39.959Z,100601.31
2022-10-14T11:51:19.264Z,100605.03
2022-10-14T11:54:13.094Z,100596.97
2022-10-14T11:57:01.379Z,100597.50
2022-10-14T12:00:18.854Z,100593.19
2022-10-14T12:02:58.323Z,100598.19
2022-10-14T12:05:50.255Z,100591.16
2022-10-14T12:08:22.312Z,100593.78
2022-10-14T12:11:03.592Z,100590.28
2022-10-14T12:13:39.111Z,100591.34
2022-10-14T12:16:13.164Z,100590.66
2022-10-14T12:18:41.735Z,100591.97
2022-10-14T12:21:49.883Z,100584.78
2022-10-14T12:24:21.548Z,100580.56
2022-10-14T12:27:00.744Z,100581.41
2022-10-14T12:29:37.421Z,100579.13
2022-10-14T12:32:03.975Z,100569.81
2022-10-14T12:34:40.517Z,100572.59
2022-10-14T12:37:28.920Z,100568.13
2022-10-14T12:40:05.862Z,100567.91
2022-10-14T12:42:44.617Z,100565.72
2022-10-14T12:45:23.479Z,100555.75
2022-10-14T12:48:16.688Z,100554.66
2022-10-14T12:50:46.346Z,100552.03
2022-10-14T12:53:28.255Z,100566.09
2022-10-14T12:56:00.799Z,100556.84
2022-10-14T12:58:32.517Z,100560.31
2022-10-14T13:01:03.284Z,100552.69
2022-10-14T13:03:45.670Z,100548.16
2022-10-14T13:06:29.860Z,100551.03
2022-10-14T13:09:11.746Z,100554.94
2022-10-14T13:11:40.987Z,100557.78
2022-10-14T13:14:25.913Z,100558.09
2022-10-14T13:16:52.760Z,100556.50
2022-10-14T13:19:34.353Z,100556.59
2022-10-14T13:22:28.446Z,100549.59
2022-10-14T13:25:14.083Z,100543.75
2022-10-14T13:27:43.083Z,100537.25
2022-10-14T13:30:35.427Z,100546.06
2022-10-14T13:33:22.952Z,100538.37
2022-10-14T13:36:04.016Z,100536.47
2022-10-14T13:38:32.174Z,100535.78
2022-10-14T13:40:59.575Z,100547.03
2022-10-14T13:43:29.472Z,100550.31
2022-10-14T13:46:07.966Z,100541.25
2022-10-14T13:48:38.429Z,100544.09
2022-10-14T13:51:24.568Z,100533.97
2022-10-14T13:54:22.013Z,100543.16
2022-10-14T13:57:28.692Z,100533.97
2022-10-14T14:00:37.908Z,100531.16
2022-10-14T14:02:35.145Z,100528.81
2022-10-14T14:05:02.080Z,100519.72
2022-10-14T14:08:08.482Z,100526.19
2022-10-14T14:10:25.241Z,100517.91
2022-10-14T14:12:52.136Z,100514.31
2022-10-14T14:15:25.803Z,100510.53
2022-10-14T14:19:04.047Z,100514.03
2022-10-14T14:21:34.031Z,100516.00
2022-10-14T14:24:01.698Z,100499.22
2022-10-14T14:26:35.764Z,100512.28
2022-10-14T14:29:25.265Z,100503.38
2022-10-14T14:32:08.589Z,100515.16
2022-10-14T14:34:38.616Z,100515.41
2022-10-14T14:37:25.102Z,100511.13
2022-10-14T14:40:01.024Z,100505.22
2022-10-14T14:42:33.004Z,100506.16
2022-10-14T14:45:06.387Z,100508.22
2022-10-14T14:47:33.724Z,100503.22
2022-10-14T14:50:28.638Z,100510.69
2022-10-14T14:52:48.714Z,100510.06
2022-10-14T14:55:36.333Z,100502.59
2022-10-14T14:58:05.399Z,100507.59
2022-10-14T15:00:32.320Z,100498.84
2022-10-14T15:03:02.289Z,100504.03
2022-10-14T15:05:29.997Z,100502.91
2022-10-14T15:07:56.941Z,100500.28
2022-10-14T15:10:31.627Z,100505.53
2022-10-14T15:13:02.507Z,100502.91
2022-10-14T15:15:32.550Z,100503.97
2022-10-14T15:18:15.775Z,100498.47
2022-10-14T15:20:43.553Z,100501.34
2022-10-14T15:24:24.621Z,100503.50
2022-10-14T15:26:51.174Z,100502.44
2022-10-14T15:31:59.973Z,100489.47
2022-10-14T15:34:26.540Z,100496.94
2022-10-14T15:36:54.130Z,100500.63
2022-10-14T15:39:21.761Z,100497.81
2022-10-14T15:41:48.598Z,100498.69
2022-10-14T15:44:15.382Z,100508.97
2022-10-14T15:47:02.750Z,100503.78
2022-10-14T15:49:32.877Z,100504.75
2022-10-14T15:51:59.323Z,100496.50
2022-10-14T15:54:27.585Z,100506.84
2022-10-14T15:59:27.681Z,100506.72
2022-10-14T16:01:54.553Z,100511.28
2022-10-14T16:04:24.764Z,100500.12
2022-10-14T16:06:54.575Z,100506.91
2022-10-14T16:09:27.554Z,100523.12
2022-10-14T16:11:57.633Z,100520.12
2022-10-14T16:14:27.734Z,100531.78
2022-10-14T16:16:54.754Z,100520.88
2022-10-14T16:19:24.397Z,100527.91
2022-10-14T16:21:51.052Z,100528.87
2022-10-14T16:24:20.558Z,100533.78
2022-10-14T16:26:51.316Z,100535.44
2022-10-14T16:29:21.729Z,100537.56
2022-10-14T16:31:50.101Z,100537.00
2022-10-14T16:34:22.614Z,100542.31
2022-10-14T16:36:50.896Z,100534.50
2022-10-14T16:39:19.438Z,100547.84
2022-10-14T16:41:46.183Z,100543.47
2022-10-14T16:44:24.712Z,100550.75
2022-10-14T16:47:14.989Z,100554.00
2022-10-14T16:49:47.712Z,100554.06
2022-10-14T16:52:15.267Z,100545.69
2022-10-14T16:54:41.982Z,100551.72
2022-10-14T16:57:08.878Z,100556.53
2022-10-14T16:59:35.549Z,100553.78
2022-10-14T17:02:02.957Z,100548.19
2022-10-14T17:04:29.565Z,100554.78
2022-10-14T17:06:56.615Z,100557.62
2022-10-14T17:09:26.203Z,100555.41
2022-10-14T17:11:52.986Z,100550.81
2022-10-14T17:14:22.987Z,100552.25
2022-10-14T17:16:53.084Z,100553.91
2022-10-14T17:19:20.124Z,100553.91
2022-10-14T17:21:48.751Z,100556.56
2022-10-14T17:24:17.084Z,100549.37
2022-10-14T17:26:45.246Z,100557.62
2022-10-14T17:29:12.119Z,100552.00
2022-10-14T17:31:38.962Z,100561.88
2022-10-14T17:34:05.608Z,100553.66
2022-10-14T17:36:32.186Z,100552.50
2022-10-14T17:38:59.849Z,100557.50
2022-10-14T17:41:29.289Z,100551.69
2022-10-14T17:43:57.687Z,100552.31
2022-10-14T17:46:25.871Z,100556.53
2022-10-14T17:48:56.207Z,100554.31
2022-10-14T17:51:27.035Z,100553.34
2022-10-14T17:53:58.732Z,100543.34
2022-10-14T17:56:26.999Z,100554.56
2022-10-14T17:58:58.927Z,100556.34
2022-10-14T18:01:37.115Z,100552.37
2022-10-14T18:04:10.671Z,100556.19
2022-10-14T18:06:37.457Z,100558.78
2022-10-14T18:09:07.827Z,100553.56
2022-10-14T18:11:56.324Z,100551.00
2022-10-14T18:14:21.722Z,100557.59
2022-10-14T18:16:48.592Z,100550.59
2022-10-14T18:19:16.668Z,100553.41
2022-10-14T18:21:44.418Z,100549.37
2022-10-14T18:24:11.829Z,100562.19
2022-10-14T18:26:41.126Z,100561.94
2022-10-14T18:29:09.068Z,100562.16
2022-10-14T18:31:36.520Z,100556.34
2022-10-14T18:34:03.516Z,100556.94
2022-10-14T18:36:33.055Z,100560.53
2022-10-14T18:39:02.688Z,100562.94
2022-10-14T18:41:31.780Z,100563.13
2022-10-14T18:43:58.586Z,100555.94
2022-10-14T18:49:51.270Z,100563.53
2022-10-14T18:52:18.918Z,100562.50
2022-10-14T18:54:45.451Z,100560.69
2022-10-14T18:57:14.934Z,100560.69
2022-10-14T18:59:41.899Z,100554.91
2022-10-14T19:02:13.397Z,100558.09
2022-10-14T19:04:39.968Z,100570.91
2022-10-14T19:07:07.243Z,100565.69
2022-10-14T19:09:33.971Z,100571.88
2022-10-14T19:12:00.647Z,100575.50
2022-10-14T19:14:28.578Z,100575.91
2022-10-14T19:16:55.213Z,100576.50
2022-10-14T19:19:21.852Z,100577.66
2022-10-14T19:21:50.209Z,100580.47
2022-10-14T19:24:18.298Z,100577.47
2022-10-14T19:26:46.380Z,100577.84
2022-10-14T19:29:15.270Z,100582.81
2022-10-14T19:31:43.749Z,100574.41
2022-10-14T19:34:13.738Z,100582.00
2022-10-14T19:36:40.814Z,100578.78
2022-10-14T19:39:11.684Z,100585.00
2022-10-14T19:41:43.136Z,100576.16
2022-10-14T19:44:10.964Z,100579.16
2022-10-14T19:46:38.161Z,100582.16
2022-10-14T19:49:05.601Z,100586.37
2022-10-14T19:51:33.629Z,100587.16
2022-10-14T19:54:00.666Z,100582.97
2022-10-14T19:56:28.133Z,100583.75
2022-10-14T19:59:18.180Z,100584.94
2022-10-14T20:01:44.864Z,100592.16
2022-10-14T20:04:11.620Z,100588.97
2022-10-14T20:06:40.002Z,100583.97
2022-10-14T20:09:07.823Z,100594.56
2022-10-14T20:11:34.761Z,100590.16
2022-10-14T20:14:01.431Z,100589.94
2022-10-14T20:16:28.122Z,100597.06
2022-10-14T20:18:55.597Z,100600.69
2022-10-14T20:21:22.234Z,100594.88
2022-10-14T20:23:48.814Z,100595.06
2022-10-14T20:26:18.349Z,100598.03
2022-10-14T20:28:45.510Z,100596.00
2022-10-14T20:31:17.854Z,100593.00
2022-10-14T20:33:44.452Z,100590.97
2022-10-14T20:36:19.757Z,100593.75
2022-10-14T20:38:47.468Z,100594.34
2022-10-14T20:41:21.159Z,100593.34
2022-10-14T20:43:48.455Z,100586.91
2022-10-14T20:46:15.364Z,100590.13
2022-10-14T20:48:42.159Z,100583.91
2022-10-14T20:51:12.148Z,100582.47
2022-10-14T20:53:38.720Z,100581.91
2022-10-14T20:56:11.142Z,100584.28
2022-10-14T20:58:38.051Z,100581.69
2022-10-14T21:01:16.320Z,100586.44
2022-10-14T21:03:44.807Z,100582.06
2022-10-14T21:06:14.818Z,100572.28
2022-10-14T21:08:41.779Z,100579.09
2022-10-14T21:11:14.820Z,100577.69
2022-10-14T21:13:45.272Z,100573.72
2022-10-14T21:16:26.272Z,100567.88
2022-10-14T21:18:57.934Z,100576.06
2022-10-14T21:21:27.384Z,100570.62
2022-10-14T21:23:55.012Z,100577.25
2022-10-14T21:26:21.952Z,100580.16
2022-10-14T21:28:48.579Z,100584.53
2022-10-14T21:31:18.858Z,100581.75
2022-10-14T21:33:47.772Z,100580.72
2022-10-14T21:36:16.124Z,100583.91
2022-10-14T21:38:42.918Z,100577.50
2022-10-14T21:41:09.789Z,100592.03
2022-10-14T21:43:37.730Z,100585.97
2022-10-14T21:46:10.301Z,100581.22
2022-10-14T21:48:37.122Z,100579.03
2022-10-14T21:51:03.997Z,100571.44
2022-10-14T21:53:31.470Z,100579.41
2022-10-14T21:55:58.891Z,100567.84
2022-10-14T21:58:26.281Z,100565.63
2022-10-14T22:01:00.826Z,100568.03
2022-10-14T22:03:27.519Z,100562.22
2022-10-14T22:05:59.032Z,100568.41
2022-10-14T22:08:30.212Z,100560.44
2022-10-14T22:10:56.783Z,100556.44
2022-10-14T22:13:23.846Z,100559.44
2022-10-14T22:15:50.388Z,100558.66
2022-10-14T22:18:17.134Z,100556.22
2022-10-14T22:20:43.720Z,100560.56
2022-10-14T22:23:10.268Z,100557.59
2022-10-14T22:25:36.819Z,100550.19
2022-10-14T22:28:04.332Z,100542.78
2022-10-14T22:30:31.450Z,100548.97
2022-10-14T22:32:58.188Z,100555.81
2022-10-14T22:35:24.725Z,100547.19
2022-10-14T22:37:51.351Z,100549.31
2022-10-14T22:40:18.208Z,100546.72
2022-10-14T22:42:49.065Z,100556.84
2022-10-14T22:45:18.147Z,100555.87
2022-10-14T22:47:44.705Z,100562.22
2022-10-14T22:50:11.341Z,100566.97
2022-10-14T22:52:38.123Z,100561.56
2022-10-14T22:55:05.182Z,100560.69
2022-10-14T22:57:31.788Z,100562.84
2022-10-14T22:59:58.326Z,100560.53
2022-10-14T23:02:25.358Z,100564.12
2022-10-14T23:04:52.178Z,100550.69
2022-10-14T23:07:18.889Z,100552.69
2022-10-14T23:09:46.042Z,100550.38
2022-10-14T23:12:12.696Z,100556.56
2022-10-14T23:14:39.222Z,100553.06
2022-10-14T23:17:05.769Z,100554.06
2022-10-14T23:19:32.375Z,100556.03
2022-10-14T23:21:58.910Z,100563.19
2022-10-14T23:24:25.590Z,100562.72
2022-10-14T23:26:52.124Z,100565.25
2022-10-14T23:29:18.746Z,100569.47
2022-10-14T23:31:45.308Z,100565.53
2022-10-14T23:34:13.682Z,100569.53
2022-10-14T23:36:40.686Z,100567.59
2022-10-14T23:39:07.672Z,100571.06
2022-10-14T23:41:34.293Z,100564.09
2022-10-14T23:44:01.059Z,100569.81
2022-10-14T23:46:27.672Z,100574.38
2022-10-14T23:49:06.671Z,100577.50
2022-10-14T23:51:35.276Z,100574.44
2022-10-14T23:54:02.195Z,100576.25
2022-10-14T23:56:28.752Z,100567.88
2022-10-14T23:58:55.336Z,100571.00
